Time,TemperatureF,DewpointF,PressureIn,WindDirection,WindDirectionDegrees,WindSpeedMPH,WindSpeedGustMPH,Humidity,HourlyPrecipIn,Conditions,Clouds,dailyrainin,SolarRadiationWatts/m^2,SoftwareType,DateUTC
2013-01-29 00:04:00,47.0,45.0,30.48,SW,219,9.0,16.0,91,0.00,,,0.02,0.000000,,2013-01-29 05:04:00,
2013-01-29 00:12:00,47.0,45.0,30.48,SW,219,9.0,16.0,91,0.00,,,0.02,0.000000,,2013-01-29 05:12:00,
2013-01-29 00:32:00,49.0,47.0,30.48,SW,215,7.0,14.0,93,0.00,,,0.02,0.000000,,2013-01-29 05:32:00,
2013-01-29 00:43:00,49.0,47.0,30.48,SW,215,7.0,14.0,93,0.00,,,0.02,0.000000,,2013-01-29 05:43:00,
2013-01-29 00:52:00,49.0,47.0,30.48,SW,215,7.0,14.0,93,0.00,,,0.02,0.000000,,2013-01-29 05:52:00,
2013-01-29 01:02:00,49.0,47.0,30.48,SW,215,7.0,14.0,93,0.00,,,0.02,0.000000,,2013-01-29 06:02:00,
2013-01-29 01:11:00,49.0,47.0,30.48,SW,215,7.0,14.0,93,0.00,,,0.02,0.000000,,2013-01-29 06:11:00,
2013-01-29 01:32:00,47.0,46.0,30.47,SSW,209,5.0,13.0,95,0.00,,,0.02,0.000000,,2013-01-29 06:32:00,
2013-01-29 01:42:00,47.0,46.0,30.47,SSW,209,5.0,13.0,95,0.00,,,0.02,0.000000,,2013-01-29 06:42:00,
2013-01-29 01:52:00,47.0,46.0,30.47,SSW,209,5.0,13.0,95,0.00,,,0.02,0.000000,,2013-01-29 06:52:00,
2013-01-29 02:02:00,47.0,46.0,30.47,SSW,209,5.0,13.0,95,0.00,,,0.02,0.000000,,2013-01-29 07:02:00,
2013-01-29 02:11:00,47.0,46.0,30.47,SSW,209,5.0,13.0,95,0.00,,,0.02,0.000000,,2013-01-29 07:11:00,
2013-01-29 02:32:00,46.0,46.0,30.46,SW,234,5.0,11.0,99,0.00,,,0.02,0.000000,,2013-01-29 07:32:00,
2013-01-29 02:42:00,46.0,46.0,30.46,SW,234,5.0,11.0,99,0.00,,,0.02,0.000000,,2013-01-29 07:42:00,
2013-01-29 02:52:00,46.0,46.0,30.46,SW,234,5.0,11.0,99,0.00,,,0.02,0.000000,,2013-01-29 07:52:00,
2013-01-29 03:02:00,46.0,46.0,30.46,SW,234,5.0,11.0,99,0.00,,,0.02,0.000000,,2013-01-29 08:02:00,
2013-01-29 03:11:00,46.0,46.0,30.46,SW,234,5.0,11.0,99,0.00,,,0.02,0.000000,,2013-01-29 08:11:00,
2013-01-29 03:32:00,43.0,43.0,30.45,WSW,244,3.0,12.0,99,0.00,,,0.02,0.000000,,2013-01-29 08:32:00,
2013-01-29 03:42:00,43.0,43.0,30.45,WSW,244,3.0,12.0,99,0.00,,,0.02,0.000000,,2013-01-29 08:42:00,
2013-01-29 03:52:00,43.0,43.0,30.45,WSW,244,3.0,12.0,99,0.00,,,0.02,0.000000,,2013-01-29 08:52:00,
2013-01-29 04:02:00,43.0,43.0,30.45,WSW,244,3.0,12.0,99,0.00,,,0.02,0.000000,,2013-01-29 09:02:00,
2013-01-29 04:11:00,43.0,43.0,30.45,WSW,244,3.0,12.0,99,0.00,,,0.02,0.000000,,2013-01-29 09:11:00,
2013-01-29 04:42:00,42.0,42.0,30.44,West,274,1.0,8.0,99,0.00,,,0.01,0.000000,,2013-01-29 09:42:00,
2013-01-29 04:52:00,42.0,42.0,30.44,West,274,1.0,8.0,99,0.00,,,0.01,0.000000,,2013-01-29 09:52:00,
2013-01-29 05:02:00,42.0,42.0,30.44,West,274,1.0,8.0,99,0.00,,,0.01,0.000000,,2013-01-29 10:02:00,
2013-01-29 05:11:00,42.0,42.0,30.44,West,274,1.0,8.0,99,0.00,,,0.01,0.000000,,2013-01-29 10:11:00,
2013-01-29 05:42:00,40.0,39.0,30.44,SSE,158,2.0,4.0,97,0.00,,,0.01,0.000000,,2013-01-29 10:42:00,
2013-01-29 05:52:00,40.0,39.0,30.44,SSE,158,2.0,4.0,97,0.00,,,0.01,0.000000,,2013-01-29 10:52:00,
2013-01-29 06:02:00,40.0,39.0,30.44,SSE,158,2.0,4.0,97,0.00,,,0.01,0.000000,,2013-01-29 11:02:00,
2013-01-29 06:12:00,40.0,39.0,30.44,SSE,158,2.0,4.0,97,0.00,,,0.01,0.000000,,2013-01-29 11:12:00,
2013-01-29 06:32:00,39.0,38.0,30.45,North,10,1.0,4.0,96,0.00,,,0.01,0.000000,,2013-01-29 11:32:00,
2013-01-29 06:42:00,39.0,38.0,30.45,North,10,1.0,4.0,96,0.00,,,0.01,0.000000,,2013-01-29 11:42:00,
2013-01-29 06:53:00,39.0,38.0,30.45,North,10,1.0,4.0,96,0.00,,,0.01,0.000000,,2013-01-29 11:53:00,
2013-01-29 07:03:00,39.0,38.0,30.45,North,10,1.0,4.0,96,0.00,,,0.01,0.000000,,2013-01-29 12:03:00,
2013-01-29 07:12:00,39.0,38.0,30.45,North,10,1.0,4.0,96,0.00,,,0.01,0.000000,,2013-01-29 12:12:00,
2013-01-29 07:33:00,37.0,36.0,30.45,SSE,162,3.0,5.0,95,0.00,,,0.01,0.000000,,2013-01-29 12:33:00,
2013-01-29 07:43:00,37.0,36.0,30.45,SSE,162,3.0,5.0,95,0.00,,,0.01,0.000000,,2013-01-29 12:43:00,
2013-01-29 07:53:00,37.0,36.0,30.45,SSE,162,3.0,5.0,95,0.00,,,0.01,0.000000,,2013-01-29 12:53:00,
2013-01-29 08:02:00,37.0,36.0,30.45,SSE,162,3.0,5.0,95,0.00,,,0.01,0.000000,,2013-01-29 13:02:00,
2013-01-29 08:12:00,37.0,36.0,30.45,SSE,162,3.0,5.0,95,0.00,,,0.01,0.000000,,2013-01-29 13:12:00,
2013-01-29 08:43:00,39.0,37.0,30.45,SSE,160,2.0,11.0,94,0.00,,,0.01,11.000000,,2013-01-29 13:43:00,
2013-01-29 08:53:00,39.0,37.0,30.45,SSE,160,2.0,11.0,94,0.00,,,0.01,11.000000,,2013-01-29 13:53:00,
2013-01-29 09:02:00,39.0,37.0,30.45,SSE,160,2.0,11.0,94,0.00,,,0.01,11.000000,,2013-01-29 14:02:00,
2013-01-29 09:12:00,39.0,37.0,30.45,SSE,160,2.0,11.0,94,0.00,,,0.01,11.000000,,2013-01-29 14:12:00,
2013-01-29 09:43:00,46.0,44.0,30.45,SSW,192,2.0,11.0,92,0.00,,,0.01,104.000000,,2013-01-29 14:43:00,
2013-01-29 09:53:00,46.0,44.0,30.45,SSW,192,2.0,11.0,92,0.00,,,0.01,104.000000,,2013-01-29 14:53:00,
2013-01-29 10:03:00,46.0,44.0,30.45,SSW,192,2.0,11.0,92,0.00,,,0.01,104.000000,,2013-01-29 15:03:00,
2013-01-29 10:12:00,46.0,44.0,30.45,SSW,192,2.0,11.0,92,0.00,,,0.01,104.000000,,2013-01-29 15:12:00,
2013-01-29 10:33:00,57.0,50.0,30.46,WNW,289,3.0,6.0,78,0.00,,,0.01,303.000000,,2013-01-29 15:33:00,
2013-01-29 10:43:00,57.0,50.0,30.46,WNW,289,3.0,6.0,78,0.00,,,0.01,303.000000,,2013-01-29 15:43:00,
2013-01-29 10:53:00,57.0,50.0,30.46,WNW,289,3.0,6.0,78,0.00,,,0.01,303.000000,,2013-01-29 15:53:00,
2013-01-29 11:03:00,57.0,50.0,30.46,WNW,289,3.0,6.0,78,0.00,,,0.01,303.000000,,2013-01-29 16:03:00,
2013-01-29 11:12:00,57.0,50.0,30.46,WNW,289,3.0,6.0,78,0.00,,,0.01,303.000000,,2013-01-29 16:12:00,
2013-01-29 11:43:00,62.0,52.0,30.45,WSW,240,6.0,39.0,70,0.00,,,0.01,404.000000,,2013-01-29 16:43:00,
2013-01-29 11:53:00,62.0,52.0,30.45,WSW,240,6.0,39.0,70,0.00,,,0.01,404.000000,,2013-01-29 16:53:00,
2013-01-29 12:03:00,62.0,52.0,30.45,WSW,240,6.0,39.0,70,0.00,,,0.01,404.000000,,2013-01-29 17:03:00,
2013-01-29 12:12:00,62.0,52.0,30.45,WSW,240,6.0,39.0,70,0.00,,,0.01,404.000000,,2013-01-29 17:12:00,
2013-01-29 12:42:00,67.0,53.0,30.40,SW,221,8.0,17.0,61,0.00,,,0.01,317.000000,,2013-01-29 17:42:00,
2013-01-29 12:53:00,67.0,53.0,30.40,SW,221,8.0,17.0,61,0.00,,,0.01,317.000000,,2013-01-29 17:53:00,
2013-01-29 13:04:00,67.0,53.0,30.40,SW,221,8.0,17.0,61,0.00,,,0.01,317.000000,,2013-01-29 18:04:00,
2013-01-29 13:12:00,67.0,53.0,30.40,SW,221,8.0,17.0,61,0.00,,,0.01,317.000000,,2013-01-29 18:12:00,
2013-01-29 13:33:00,72.0,56.0,30.38,SW,215,10.0,20.0,57,0.00,,,0.01,422.000000,,2013-01-29 18:33:00,
2013-01-29 13:42:00,72.0,56.0,30.38,SW,215,10.0,20.0,57,0.00,,,0.01,422.000000,,2013-01-29 18:42:00,
2013-01-29 13:52:00,72.0,56.0,30.38,SW,215,10.0,20.0,57,0.00,,,0.01,422.000000,,2013-01-29 18:52:00,
2013-01-29 14:03:00,72.0,56.0,30.38,SW,215,10.0,20.0,57,0.00,,,0.01,422.000000,,2013-01-29 19:03:00,
2013-01-29 14:12:00,72.0,56.0,30.38,SW,215,10.0,20.0,57,0.00,,,0.01,422.000000,,2013-01-29 19:12:00,
2013-01-29 14:42:00,74.0,55.0,30.35,SSW,212,8.0,19.0,52,0.00,,,0.01,554.000000,,2013-01-29 19:42:00,
2013-01-29 14:52:00,74.0,55.0,30.35,SSW,212,8.0,19.0,52,0.00,,,0.01,554.000000,,2013-01-29 19:52:00,
2013-01-29 15:03:00,74.0,55.0,30.35,SSW,212,8.0,19.0,52,0.00,,,0.01,554.000000,,2013-01-29 20:03:00,
2013-01-29 15:13:00,74.0,55.0,30.35,SSW,212,8.0,19.0,52,0.00,,,0.01,554.000000,,2013-01-29 20:13:00,
2013-01-29 15:43:00,73.0,54.0,30.35,SSW,206,10.0,23.0,52,0.00,,,0.01,422.000000,,2013-01-29 20:43:00,
2013-01-29 15:53:00,73.0,54.0,30.35,SSW,206,10.0,23.0,52,0.00,,,0.01,422.000000,,2013-01-29 20:53:00,
2013-01-29 16:03:00,73.0,54.0,30.35,SSW,206,10.0,23.0,52,0.00,,,0.01,422.000000,,2013-01-29 21:03:00,
2013-01-29 16:12:00,73.0,54.0,30.35,SSW,206,10.0,23.0,52,0.00,,,0.01,422.000000,,2013-01-29 21:12:00,
2013-01-29 16:42:00,76.0,55.0,30.32,SSW,204,7.0,23.0,48,0.00,,,0.00,275.000000,,2013-01-29 21:42:00,
2013-01-29 16:53:00,76.0,55.0,30.32,SSW,204,7.0,23.0,48,0.00,,,0.00,275.000000,,2013-01-29 21:53:00,
2013-01-29 17:03:00,76.0,55.0,30.32,SSW,204,7.0,23.0,48,0.00,,,0.00,275.000000,,2013-01-29 22:03:00,
2013-01-29 17:12:00,76.0,55.0,30.32,SSW,204,7.0,23.0,48,0.00,,,0.00,275.000000,,2013-01-29 22:12:00,
2013-01-29 17:43:00,70.0,53.0,30.32,West,263,9.0,23.0,55,0.00,,,0.00,155.000000,,2013-01-29 22:43:00,
2013-01-29 17:53:00,70.0,53.0,30.32,West,263,9.0,23.0,55,0.00,,,0.00,155.000000,,2013-01-29 22:53:00,
2013-01-29 18:02:00,70.0,53.0,30.32,West,263,9.0,23.0,55,0.00,,,0.00,155.000000,,2013-01-29 23:02:00,
2013-01-29 18:12:00,70.0,53.0,30.32,West,263,9.0,23.0,55,0.00,,,0.00,155.000000,,2013-01-29 23:12:00,
2013-01-29 18:33:00,66.0,53.0,30.31,South,191,8.0,16.0,63,0.00,,,0.00,21.000000,,2013-01-29 23:33:00,
2013-01-29 18:42:00,66.0,53.0,30.31,South,191,8.0,16.0,63,0.00,,,0.00,21.000000,,2013-01-29 23:42:00,
2013-01-29 18:53:00,66.0,53.0,30.31,South,191,8.0,16.0,63,0.00,,,0.00,21.000000,,2013-01-29 23:53:00,
2013-01-29 19:03:00,66.0,53.0,30.31,South,191,8.0,16.0,63,0.00,,,0.00,21.000000,,2013-01-30 00:03:00,
2013-01-29 19:12:00,66.0,53.0,30.31,South,191,8.0,16.0,63,0.00,,,0.00,21.000000,,2013-01-30 00:12:00,
2013-01-29 19:33:00,64.0,53.0,30.32,SSW,193,7.0,14.0,67,0.00,,,0.00,0.000000,,2013-01-30 00:33:00,
2013-01-29 19:43:00,64.0,53.0,30.32,SSW,193,7.0,14.0,67,0.00,,,0.00,0.000000,,2013-01-30 00:43:00,
2013-01-29 19:53:00,64.0,53.0,30.32,SSW,193,7.0,14.0,67,0.00,,,0.00,0.000000,,2013-01-30 00:53:00,
2013-01-29 20:02:00,64.0,53.0,30.32,SSW,193,7.0,14.0,67,0.00,,,0.00,0.000000,,2013-01-30 01:02:00,
2013-01-29 20:12:00,64.0,53.0,30.32,SSW,193,7.0,14.0,67,0.00,,,0.00,0.000000,,2013-01-30 01:12:00,
2013-01-29 20:43:00,63.0,54.0,30.31,South,182,9.0,15.0,72,0.00,,,0.00,0.000000,,2013-01-30 01:43:00,
2013-01-29 20:52:00,63.0,54.0,30.31,South,182,9.0,15.0,72,0.00,,,0.00,0.000000,,2013-01-30 01:52:00,
2013-01-29 21:02:00,63.0,54.0,30.31,South,182,9.0,15.0,72,0.00,,,0.00,0.000000,,2013-01-30 02:02:00,
2013-01-29 21:12:00,63.0,54.0,30.31,South,182,9.0,15.0,72,0.00,,,0.00,0.000000,,2013-01-30 02:12:00,
2013-01-29 21:33:00,63.0,54.0,30.31,South,183,6.0,13.0,73,0.00,,,0.00,0.000000,,2013-01-30 02:33:00,
2013-01-29 21:42:00,63.0,54.0,30.31,South,183,6.0,13.0,73,0.00,,,0.00,0.000000,,2013-01-30 02:42:00,
2013-01-29 21:53:00,63.0,54.0,30.31,South,183,6.0,13.0,73,0.00,,,0.00,0.000000,,2013-01-30 02:53:00,
2013-01-29 22:03:00,63.0,54.0,30.31,South,183,6.0,13.0,73,0.00,,,0.00,0.000000,,2013-01-30 03:03:00,
2013-01-29 22:12:00,63.0,54.0,30.31,South,183,6.0,13.0,73,0.00,,,0.00,0.000000,,2013-01-30 03:12:00,
2013-01-29 22:32:00,61.0,53.0,30.31,South,179,6.0,15.0,76,0.00,,,0.00,0.000000,,2013-01-30 03:32:00,
2013-01-29 22:42:00,61.0,53.0,30.31,South,179,6.0,15.0,76,0.00,,,0.00,0.000000,,2013-01-30 03:42:00,
2013-01-29 22:52:00,61.0,53.0,30.31,South,179,6.0,15.0,76,0.00,,,0.00,0.000000,,2013-01-30 03:52:00,
2013-01-29 23:02:00,61.0,53.0,30.31,South,179,6.0,15.0,76,0.00,,,0.00,0.000000,,2013-01-30 04:02:00,
2013-01-29 23:12:00,61.0,53.0,30.31,South,179,6.0,15.0,76,0.00,,,0.00,0.000000,,2013-01-30 04:12:00,
2013-01-29 23:32:00,61.0,54.0,30.30,South,174,9.0,15.0,78,0.00,,,0.00,0.000000,,2013-01-30 04:32:00,
2013-01-29 23:42:00,61.0,54.0,30.30,South,174,9.0,15.0,78,0.00,,,0.00,0.000000,,2013-01-30 04:42:00,
2013-01-29 23:52:00,61.0,54.0,30.30,South,174,9.0,15.0,78,0.00,,,0.00,0.000000,,2013-01-30 04:52:00,